ETEB/QOB METAR and TAF weather

Enter ICAO airport designator
Station Type Date Time Source
ETEB METAR 2022/05/23 14:07 UTC NOAA

ETEB 231407Z AUTO M 9999 CLR 18/18 A2963 RMK AO2 DZB06E06 SLP039 $


Station Type Date Time Source
ETEB Decoded METAR 2022/05/23 14:07 UTC NOAA

Ansbach / Katterbach, Germany (ETEB) 49-19N 010-38E 476M
May 23, 2022 - 10:07 AM EDT / 2022.05.23 1407 UTC
Visibility: greater than 7 mile(s):0
Sky conditions: clear
Temperature: 64 F (18 C)
Dew Point: 64 F (18 C)
Relative Humidity: 100%
Pressure (altimeter): 29.63 in. Hg (1003 hPa)
ob: ETEB 231407Z AUTO M 9999 CLR 18/18 A2963 RMK AO2 DZB06E06 SLP039
cycle: 14

Station Type Date Time Source
ETEB TAF 2022/05/23 07:00 UTC NOAA

TAF ETEB 230700Z 2307/2413 18010G15KT 9000 -SHRA FEW030 SCT035 BKN090 QNH2969INS
BECMG 2310/2311 12012G18KT 9999 NSW FEW080 SCT100 QNH2958INS
BECMG 2315/2316 15010G15KT 9999 BKN050 QNH2957INS
TEMPO 2317/2321 8000 -TSRA BKN050CB
BECMG 2320/2321 24009KT 8000 -SHRA OVC030 QNH2964INS
BECMG 2322/2323 24009KT 9000 BR OVC020 QNH2966INS
BECMG 2401/2402 25009KT 8000 BR OVC015 QNH2972INS
BECMG 2406/2407 27012G18KT 9999 NSW OVC025 QNH2974INS
TEMPO 2409/2413 9000 -SHRA FEW035 SCT055 BKN080 TX23/2315Z TN14/2403Z

Example: see airport list